Weather History for Fort Meade, MD

Change the Weather History Date:

Saturday, May 25, 2013

  Actual Average (KBWI) Record (KBWI)
Temperature  
Mean Temperature 53 °F 66 °F  
Max Temperature 64 °F 76 °F 94 °F (1991)
Min Temperature 42 °F 55 °F 38 °F (1956)
Degree Days  
Heating Degree Days 12 3  
Month to date heating degree days 121  
Since 1 July heating degree days 4736  
Cooling Degree Days 0 3  
Month to date cooling degree days 46  
Year to date cooling degree days 60  
Growing Degree Days 3 (Base 50)    
Moisture  
Dew Point 35 °F    
Average Humidity 51    
Maximum Humidity 70    
Minimum Humidity 32    
Precipitation  
Precipitation 0.00 in 0.14 in 2.22 in (1952)
Month to date precipitation 3.19  
Year to date precipitation 16.23  
Snow  
Snow 0.00 in 0.00 in - ()
Month to date snowfall 0.0  
Since 1 July snowfall 20.1  
Snow Depth -    
Sea Level Pressure  
Sea Level Pressure 30.14 in    
Wind  
Wind Speed 10 mph (WNW)    
Max Wind Speed 24 mph    
Max Gust Speed 29 mph    
Visibility 10 miles    
Events      
T = Trace of Precipitation, MM = Missing Value Source: NWS Daily Summary

Daily Weather History Graph

Daily Weather History Graph

Search for Another Location

Airport:

Trip Planner

Search our weather history database for the weather conditions in past years. The results will help you decide how hot, cold, wet, or windy it might be!

Date:

Astronomy

May. 25, 2013 Rise Set
Actual Time 5:46 AM EDT 8:22 PM EDT
Civil Twilight 5:15 AM EDT 8:53 PM EDT
Nautical Twilight 4:36 AM EDT 9:31 PM EDT
Astronomical Twilight 3:53 AM EDT 10:15 PM EDT
Moon 9:07 PM EDT (5/25) 6:10 AM EDT (5/25)
Length of Visible Light 15h 37m
Length of Day
14h 35m
Full, 100% of the Moon is Illuminated
May 25
Full
May 31
Last Quarter
Jun 8
New
Jun 16
First Quarter
Jun 23
Full

Hourly Weather History & Observations

Time (EDT) Temp. Windchill Dew Point Humidity Pressure Visibility Wind Dir Wind Speed Gust Speed Precip Events Conditions
12:06 AM 48.2 °F - 32.0 °F 54% 30.16 in 10.0 mi NW 6.9 mph 10.4 mph N/A   Scattered Clouds
12:24 AM 46.4 °F 42.9 °F 32.0 °F 57% 30.16 in 10.0 mi WNW 6.9 mph 16.1 mph N/A   Scattered Clouds
12:45 AM 46.4 °F 42.4 °F 32.0 °F 57% 30.15 in 10.0 mi WNW 8.1 mph - N/A   Scattered Clouds
1:06 AM 46.4 °F 42.4 °F 32.0 °F 57% 30.15 in 10.0 mi WNW 8.1 mph 17.3 mph N/A   Scattered Clouds
1:24 AM 46.4 °F 42.4 °F 32.0 °F 57% 30.14 in 10.0 mi WNW 8.1 mph - N/A   Scattered Clouds
1:45 AM 44.6 °F 40.7 °F 32.0 °F 61% 30.14 in 10.0 mi WNW 6.9 mph - N/A   Clear
2:06 AM 44.6 °F 40.2 °F 32.0 °F 61% 30.14 in 10.0 mi WNW 8.1 mph - N/A   Clear
2:24 AM 44.6 °F 39.2 °F 32.0 °F 61% 30.14 in 10.0 mi WNW 10.4 mph 16.1 mph N/A   Clear
2:45 AM 44.6 °F 40.7 °F 32.0 °F 61% 30.14 in 10.0 mi WNW 6.9 mph - N/A   Clear
3:06 AM 44.6 °F 40.2 °F 32.0 °F 61% 30.13 in 10.0 mi WNW 8.1 mph - N/A   Clear
3:24 AM 42.8 °F 37.5 °F 32.0 °F 66% 30.14 in 10.0 mi WNW 9.2 mph 18.4 mph N/A   Clear
3:45 AM 42.8 °F 37.0 °F 32.0 °F 66% 30.14 in 10.0 mi WNW 10.4 mph - N/A   Clear
4:06 AM 42.8 °F 38.0 °F 32.0 °F 66% 30.15 in 10.0 mi WNW 8.1 mph - N/A   Clear
4:24 AM 42.8 °F 37.0 °F 32.0 °F 66% 30.15 in 10.0 mi WNW 10.4 mph 18.4 mph N/A   Clear
4:45 AM 42.8 °F 37.5 °F 32.0 °F 66% 30.15 in 10.0 mi WNW 9.2 mph - N/A   Clear
5:06 AM 42.8 °F 37.0 °F 32.0 °F 66% 30.15 in 10.0 mi WNW 10.4 mph - N/A   Clear
5:24 AM 42.8 °F 37.5 °F 32.0 °F 66% 30.15 in 10.0 mi WNW 9.2 mph 18.4 mph N/A   Clear
5:45 AM 42.8 °F 38.0 °F 32.0 °F 66% 30.16 in 10.0 mi WNW 8.1 mph - N/A   Clear
6:06 AM 42.8 °F 36.6 °F 33.8 °F 70% 30.16 in 10.0 mi WNW 11.5 mph 18.4 mph N/A   Clear
6:27 AM 44.6 °F 38.4 °F 33.8 °F 66% 30.16 in 10.0 mi WNW 12.7 mph 20.7 mph N/A   Clear
6:45 AM 44.6 °F 38.4 °F 33.8 °F 66% 30.16 in 10.0 mi WNW 12.7 mph 19.6 mph N/A   Clear
7:06 AM 44.6 °F 38.8 °F 33.8 °F 66% 30.17 in 10.0 mi WNW 11.5 mph 20.7 mph N/A   Clear
7:27 AM 46.4 °F 40.4 °F 35.6 °F 66% 30.18 in 10.0 mi WNW 13.8 mph 19.6 mph N/A   Clear
7:45 AM 46.4 °F 40.4 °F 33.8 °F 62% 30.18 in 10.0 mi WNW 13.8 mph 21.9 mph N/A   Clear
8:06 AM 48.2 °F - 35.6 °F 62% 30.18 in 10.0 mi WNW 15.0 mph 21.9 mph N/A   Clear
8:27 AM 50.0 °F - 35.6 °F 58% 30.19 in 10.0 mi WNW 12.7 mph 23.0 mph N/A   Clear
8:45 AM 51.8 °F - 35.6 °F 54% 30.18 in 10.0 mi NW 11.5 mph 23.0 mph N/A   Clear
9:06 AM 51.8 °F - 35.6 °F 54% 30.18 in 10.0 mi WNW 12.7 mph 23.0 mph N/A   Clear
9:27 AM 53.6 °F - 35.6 °F 51% 30.17 in 10.0 mi WNW 13.8 mph 23.0 mph N/A   Clear
9:45 AM 53.6 °F - 35.6 °F 51% 30.17 in 10.0 mi NW 13.8 mph 23.0 mph N/A   Clear
10:06 AM 53.6 °F - 35.6 °F 51% 30.16 in 10.0 mi NW 13.8 mph 26.5 mph N/A   Clear
10:27 AM 55.4 °F - 35.6 °F 47% 30.16 in 10.0 mi NW 15.0 mph 21.9 mph N/A   Clear
10:45 AM 55.4 °F - 35.6 °F 47% 30.16 in 10.0 mi NW 13.8 mph 25.3 mph N/A   Clear
11:06 AM 55.4 °F - 35.6 °F 47% 30.16 in 10.0 mi NW 15.0 mph 26.5 mph N/A   Clear
11:27 AM 57.2 °F - 35.6 °F 44% 30.16 in 10.0 mi West 16.1 mph 24.2 mph N/A   Clear
11:45 AM 59.0 °F - 37.4 °F 45% 30.16 in 10.0 mi WNW 11.5 mph 21.9 mph N/A   Scattered Clouds
12:06 PM 59.0 °F - 35.6 °F 42% 30.14 in 10.0 mi NW 10.4 mph 16.1 mph N/A   Scattered Clouds
12:27 PM 59.0 °F - 37.4 °F 45% 30.14 in 10.0 mi West 13.8 mph 19.6 mph N/A   Scattered Clouds
12:45 PM 60.8 °F - 37.4 °F 42% 30.14 in 10.0 mi NW 11.5 mph 20.7 mph N/A   Scattered Clouds
1:06 PM 60.8 °F - 35.6 °F 39% 30.13 in 10.0 mi NW 12.7 mph 23.0 mph N/A   Scattered Clouds
1:27 PM 60.8 °F - 35.6 °F 39% 30.13 in 10.0 mi WNW 16.1 mph 25.3 mph N/A   Clear
1:45 PM 62.6 °F - 35.6 °F 37% 30.12 in 10.0 mi WNW 17.3 mph 26.5 mph N/A   Scattered Clouds
2:06 PM 62.6 °F - 33.8 °F 34% 30.12 in 10.0 mi NW 17.3 mph 27.6 mph N/A   Scattered Clouds
2:27 PM 62.6 °F - 35.6 °F 37% 30.12 in 10.0 mi NW 11.5 mph 25.3 mph N/A   Scattered Clouds
2:48 PM 62.6 °F - 33.8 °F 34% 30.11 in 10.0 mi WNW 17.3 mph 28.8 mph N/A   Scattered Clouds
3:06 PM 62.6 °F - 33.8 °F 34% 30.11 in 10.0 mi NW 12.7 mph 23.0 mph N/A   Clear
3:27 PM 64.4 °F - 33.8 °F 32% 30.11 in 10.0 mi WNW 24.2 mph - N/A   Scattered Clouds
3:48 PM 64.4 °F - 33.8 °F 32% 30.11 in 10.0 mi West 21.9 mph 27.6 mph N/A   Scattered Clouds
4:06 PM 64.4 °F - 35.6 °F 34% 30.10 in 10.0 mi West 16.1 mph 21.9 mph N/A   Scattered Clouds
4:27 PM 64.4 °F - 35.6 °F 34% 30.10 in 10.0 mi WNW 13.8 mph 24.2 mph N/A   Scattered Clouds
4:48 PM 62.6 °F - 33.8 °F 34% 30.10 in 10.0 mi WNW 15.0 mph 24.2 mph N/A   Scattered Clouds
5:06 PM 62.6 °F - 33.8 °F 34% 30.10 in 10.0 mi WNW 15.0 mph 23.0 mph N/A   Clear
5:27 PM 62.6 °F - 33.8 °F 34% 30.10 in 10.0 mi NW 12.7 mph 21.9 mph N/A   Clear
5:48 PM 62.6 °F - 33.8 °F 34% 30.10 in 10.0 mi WNW 11.5 mph 19.6 mph N/A   Clear
6:06 PM 62.6 °F - 33.8 °F 34% 30.09 in 10.0 mi WNW 15.0 mph 23.0 mph N/A   Scattered Clouds
6:27 PM 62.6 °F - 33.8 °F 34% 30.10 in 10.0 mi WNW 15.0 mph 19.6 mph N/A   Scattered Clouds
6:48 PM 62.6 °F - 33.8 °F 34% 30.09 in 10.0 mi WNW 15.0 mph 21.9 mph N/A   Scattered Clouds
7:06 PM 60.8 °F - 35.6 °F 39% 30.10 in 10.0 mi WNW 11.5 mph 19.6 mph N/A   Clear
7:27 PM 60.8 °F - 33.8 °F 36% 30.10 in 10.0 mi WNW 9.2 mph 17.3 mph N/A   Clear
7:48 PM 60.8 °F - 33.8 °F 36% 30.11 in 10.0 mi WNW 9.2 mph - N/A   Clear
8:06 PM 59.0 °F - 33.8 °F 39% 30.11 in 10.0 mi WNW 4.6 mph - N/A   Clear
8:27 PM 55.4 °F - 37.4 °F 51% 30.11 in 10.0 mi West 6.9 mph - N/A   Clear
8:48 PM 55.4 °F - 37.4 °F 51% 30.11 in 10.0 mi West 5.8 mph - N/A   Clear
9:06 PM 53.6 °F - 41.0 °F 62% 30.11 in 10.0 mi West 5.8 mph - N/A   Clear
9:27 PM 53.6 °F - 37.4 °F 54% 30.12 in 10.0 mi West 4.6 mph - N/A   Clear
9:48 PM 51.8 °F - 37.4 °F 58% 30.13 in 10.0 mi West 5.8 mph - N/A   Clear
10:06 PM 51.8 °F - 37.4 °F 58% 30.14 in 10.0 mi Calm Calm - N/A   Clear
10:27 PM 51.8 °F - 35.6 °F 54% 30.15 in 10.0 mi Calm Calm - N/A   Clear
10:48 PM 50.0 °F - 37.4 °F 62% 30.15 in 10.0 mi West 3.5 mph - N/A   Clear
11:06 PM 50.0 °F - 37.4 °F 62% 30.16 in 10.0 mi West 3.5 mph - N/A   Clear
11:27 PM 48.2 °F - 37.4 °F 66% 30.16 in 10.0 mi WNW 4.6 mph - N/A   Clear
11:48 PM 50.0 °F - 35.6 °F 58% 30.16 in 10.0 mi NW 5.8 mph - N/A   Clear